| time (UTC) | temp F | wind direction | speed knots | gust knots | rain 1hr in | rain 24hr in | rain mn in | humidity % | barometer mb |
| 20260503054550 | 43 | 0.0 | 0.0 | 0.00 | 0.00 | 0.00 | 59 | 995.7 | |
| 20260503053030 | 42 | 0.0 | 0.0 | 0.00 | 0.00 | 0.00 | 60 | 995.9 | |
| 20260503051536 | 42 | 0.0 | 0.0 | 0.00 | 0.00 | 0.00 | 62 | 996.1 | |
| 20260503050023 | 41 | 0.0 | 0.0 | 0.00 | 0.00 | 0.00 | 63 | 996.2 | |
| 20260503044516 | 40 | 0.0 | 0.0 | 0.00 | 0.00 | 0.00 | 65 | 996.4 | |
| 20260503043015 | 40 | 0.0 | 0.0 | 0.00 | 0.00 | 0.00 | 66 | 996.6 | |
| 20260503041509 | 40 | 0.0 | 0.0 | 0.00 | 0.00 | 0.00 | 67 | 996.7 | |
| 20260503040007 | 40 | 0.0 | 0.0 | 0.00 | 0.00 | 0.00 | 68 | 996.9 | |
| 20260503034601 | 40 | 0.0 | 0.0 | 0.00 | 0.00 | 0.00 | 67 | 997.0 | |
| 20260503033100 | 40 | 0.0 | 0.0 | 0.00 | 0.00 | 0.00 | 66 | 997.3 | |
| 20260503031551 | 40 | 0.0 | 0.0 | 0.00 | 0.00 | 0.00 | 66 | 997.4 | |
| 20260503030048 | 40 | 0.0 | 0.0 | 0.00 | 0.00 | 0.00 | 65 | 997.5 | |
| 20260503024548 | 40 | 0.0 | 0.0 | 0.00 | 0.00 | 0.00 | 64 | 997.7 | |
| 20260503023044 | 41 | 0.0 | 0.0 | 0.00 | 0.00 | 0.00 | 64 | 997.8 | |
| 20260503021537 | 41 | 0.0 | 0.0 | 0.00 | 0.00 | 0.00 | 63 | 997.9 | |
| 20260503020041 | 41 | 0.0 | 0.0 | 0.00 | 0.00 | 0.00 | 63 | 997.9 | |
| 20260503014535 | 41 | 0.0 | 0.0 | 0.00 | 0.00 | 0.00 | 62 | 997.9 | |
| 20260503013035 | 42 | 0.0 | 0.0 | 0.00 | 0.00 | 0.00 | 60 | 997.9 | |
| 20260503011527 | 42 | 0.0 | 0.0 | 0.00 | 0.00 | 0.00 | 58 | 997.9 | |
| 20260503010023 | 43 | 0.0 | 0.0 | 0.00 | 0.00 | 0.00 | 57 | 997.9 | |
| 20260503004519 | 44 | 0.0 | 0.0 | 0.00 | 0.00 | 0.00 | 52 | 998.0 | |
| 20260503003021 | 46 | 0.0 | 0.0 | 0.00 | 0.00 | 0.00 | 52 | 998.0 | |
| 20260503001510 | 46 | 0.0 | 0.0 | 0.00 | 0.00 | 0.00 | 55 | 998.0 | |
| 20260503000005 | 46 | 0.0 | 0.0 | 0.00 | 0.00 | 0.00 | 58 | 998.0 | |
| 20260502234501 | 47 | 0.0 | 0.0 | 0.00 | 0.00 | 0.00 | 58 | 998.2 | |
| 20260502233058 | 47 | 0.0 | 0.0 | 0.00 | 0.00 | 0.00 | 54 | 998.3 | |
| 20260502231553 | 47 | 0.0 | 0.0 | 0.00 | 0.00 | 0.00 | 52 | 998.4 | |
| 20260502230055 | 48 | 0.0 | 0.0 | 0.00 | 0.00 | 0.00 | 55 | 998.6 | |
| 20260502224544 | 50 | 0.0 | 0.0 | 0.00 | 0.00 | 0.00 | 54 | 998.6 | |
| 20260502223046 | 50 | 0.0 | 0.0 | 0.00 | 0.00 | 0.00 | 42 | 998.7 | |
| 20260502221535 | 49 | 0.0 | 0.0 | 0.00 | 0.00 | 0.00 | 42 | 999.0 | |
| 20260502220032 | 49 | 0.0 | 0.0 | 0.00 | 0.00 | 0.00 | 44 | 999.2 | |
| 20260502214526 | 50 | 0.0 | 0.0 | 0.00 | 0.00 | 0.00 | 41 | 999.2 | |
| 20260502213035 | 50 | 0.0 | 0.0 | 0.00 | 0.00 | 0.00 | 41 | 999.3 | |
| 20260502211521 | 50 | 0.0 | 0.0 | 0.00 | 0.00 | 0.00 | 44 | 999.4 | |
| 20260502210014 | 50 | 0.0 | 0.0 | 0.00 | 0.00 | 0.00 | 43 | 999.6 | |
| 20260502204508 | 49 | 0.0 | 0.0 | 0.00 | 0.00 | 0.00 | 43 | 999.7 | |
| 20260502203004 | 49 | 0.0 | 0.0 | 0.00 | 0.00 | 0.00 | 45 | 999.9 | |
| 20260502201625 | 49 | 0.0 | 0.0 | 0.00 | 0.00 | 0.00 | 42 | 1000.0 | |
| 20260502200101 | 49 | 0.0 | 0.0 | 0.00 | 0.00 | 0.00 | 40 | 1000.2 | |
| 20260502194555 | 49 | 0.0 | 0.0 | 0.00 | 0.00 | 0.00 | 41 | 1000.4 | |
| 20260502193059 | 49 | 0.0 | 0.0 | 0.00 | 0.00 | 0.00 | 43 | 1000.7 | |
| 20260502191543 | 48 | 0.0 | 0.0 | 0.00 | 0.00 | 0.00 | 47 | 1000.8 | |
| 20260502190044 | 47 | 0.0 | 0.0 | 0.00 | 0.00 | 0.00 | 45 | 1001.0 | |
| 20260502184541 | 48 | 0.0 | 0.0 | 0.00 | 0.00 | 0.00 | 49 | 1001.1 | |
| 20260502183030 | 47 | 0.0 | 0.0 | 0.00 | 0.00 | 0.00 | 54 | 1001.3 | |
| 20260502181525 | 47 | 0.0 | 0.0 | 0.00 | 0.00 | 0.00 | 55 | 1001.3 | |
| 20260502163058 | 46 | 0.0 | 0.0 | 0.00 | 0.00 | 0.00 | 67 | 1001.7 | |
| 20260502161552 | 45 | 0.0 | 0.0 | 0.00 | 0.00 | 0.00 | 71 | 1001.8 | |
| 20260502151541 | 45 | 0.0 | 0.0 | 0.00 | 0.00 | 0.00 | 71 | 1001.8 | |
| 20260502123044 | 37 | 0.0 | 0.0 | 0.00 | 0.00 | 0.00 | 94 | 1002.3 | |
| 20260502121540 | 35 | 0.0 | 0.0 | 0.00 | 0.00 | 0.00 | 94 | 1002.3 | |
| 20260502114531 | 32 | 0.0 | 0.0 | 0.00 | 0.00 | 0.00 | 94 | 1002.2 | |
| 20260502113029 | 30 | 0.0 | 0.0 | 0.00 | 0.00 | 0.00 | 93 | 1002.0 | |
| 20260502111523 | 30 | 0.0 | 0.0 | 0.00 | 0.00 | 0.00 | 93 | 1002.0 | |
| 20260502110018 | 29 | 0.0 | 0.0 | 0.00 | 0.00 | 0.00 | 93 | 1001.9 | |
| 20260502104521 | 29 | 0.0 | 0.0 | 0.00 | 0.00 | 0.00 | 93 | 1001.9 | |
| 20260502103014 | 29 | 0.0 | 0.0 | 0.00 | 0.00 | 0.00 | 93 | 1001.9 | |
| 20260502101505 | 29 | 0.0 | 0.0 | 0.00 | 0.00 | 0.00 | 92 | 1001.8 | |
| 20260502071512 | 32 | 0.0 | 0.0 | 0.00 | 0.00 | 0.00 | 87 | 1001.5 | |
| 20260502070008 | 33 | 0.0 | 0.0 | 0.00 | 0.00 | 0.00 | 86 | 1001.6 | |
| 20260502064505 | 34 | 0.0 | 0.0 | 0.00 | 0.00 | 0.00 | 85 | 1001.6 |